sensor_id;sensor_type;location;lat;lon;timestamp;P1;durP1;ratioP1;P2;durP2;ratioP2
11092;SDS011;5600;50.864;6.102;2023-04-06T00:02:01;78.83;;;12.13;;
11092;SDS011;5600;50.864;6.102;2023-04-06T00:05:02;67.70;;;11.27;;
11092;SDS011;5600;50.864;6.102;2023-04-06T00:08:03;67.30;;;10.67;;
11092;SDS011;5600;50.864;6.102;2023-04-06T00:11:04;91.40;;;12.07;;
11092;SDS011;5600;50.864;6.102;2023-04-06T00:14:05;79.33;;;12.13;;
11092;SDS011;5600;50.864;6.102;2023-04-06T00:17:06;56.90;;;10.90;;
11092;SDS011;5600;50.864;6.102;2023-04-06T00:20:08;72.93;;;11.60;;
11092;SDS011;5600;50.864;6.102;2023-04-06T00:23:09;74.07;;;11.77;;
11092;SDS011;5600;50.864;6.102;2023-04-06T00:26:10;72.50;;;11.93;;
11092;SDS011;5600;50.864;6.102;2023-04-06T00:29:12;61.77;;;11.87;;
11092;SDS011;5600;50.864;6.102;2023-04-06T00:32:13;62.80;;;11.03;;
11092;SDS011;5600;50.864;6.102;2023-04-06T00:35:14;75.10;;;12.47;;
11092;SDS011;5600;50.864;6.102;2023-04-06T00:38:15;76.07;;;12.00;;
11092;SDS011;5600;50.864;6.102;2023-04-06T00:41:17;58.27;;;10.83;;
11092;SDS011;5600;50.864;6.102;2023-04-06T00:44:18;79.67;;;12.47;;
11092;SDS011;5600;50.864;6.102;2023-04-06T00:47:20;72.23;;;11.33;;
11092;SDS011;5600;50.864;6.102;2023-04-06T00:50:21;75.10;;;11.80;;
11092;SDS011;5600;50.864;6.102;2023-04-06T00:53:22;71.90;;;11.17;;
11092;SDS011;5600;50.864;6.102;2023-04-06T00:56:24;59.40;;;10.43;;
11092;SDS011;5600;50.864;6.102;2023-04-06T00:59:28;56.07;;;9.80;;
11092;SDS011;5600;50.864;6.102;2023-04-06T01:02:30;71.17;;;10.17;;
11092;SDS011;5600;50.864;6.102;2023-04-06T01:05:34;60.43;;;10.43;;
11092;SDS011;5600;50.864;6.102;2023-04-06T01:08:41;58.63;;;10.60;;
11092;SDS011;5600;50.864;6.102;2023-04-06T01:11:51;58.60;;;10.03;;
11092;SDS011;5600;50.864;6.102;2023-04-06T01:14:55;81.17;;;12.07;;
11092;SDS011;5600;50.864;6.102;2023-04-06T01:17:56;76.60;;;11.37;;
11092;SDS011;5600;50.864;6.102;2023-04-06T01:20:57;75.53;;;11.83;;
11092;SDS011;5600;50.864;6.102;2023-04-06T01:24:00;59.67;;;11.00;;
11092;SDS011;5600;50.864;6.102;2023-04-06T01:27:09;73.87;;;11.33;;
11092;SDS011;5600;50.864;6.102;2023-04-06T01:30:26;74.27;;;11.37;;
11092;SDS011;5600;50.864;6.102;2023-04-06T01:33:31;64.03;;;11.17;;
11092;SDS011;5600;50.864;6.102;2023-04-06T01:36:39;56.60;;;10.60;;
11092;SDS011;5600;50.864;6.102;2023-04-06T01:39:54;68.67;;;10.77;;
11092;SDS011;5600;50.864;6.102;2023-04-06T01:43:09;71.33;;;10.97;;
11092;SDS011;5600;50.864;6.102;2023-04-06T01:46:20;61.60;;;10.43;;
11092;SDS011;5600;50.864;6.102;2023-04-06T01:49:22;65.40;;;10.33;;
11092;SDS011;5600;50.864;6.102;2023-04-06T01:52:28;75.87;;;11.40;;
11092;SDS011;5600;50.864;6.102;2023-04-06T01:55:29;56.33;;;9.80;;
11092;SDS011;5600;50.864;6.102;2023-04-06T01:59:01;66.63;;;10.50;;
11092;SDS011;5600;50.864;6.102;2023-04-06T02:02:09;66.57;;;10.70;;
11092;SDS011;5600;50.864;6.102;2023-04-06T02:05:12;71.90;;;10.57;;
11092;SDS011;5600;50.864;6.102;2023-04-06T02:08:14;65.47;;;10.30;;
11092;SDS011;5600;50.864;6.102;2023-04-06T02:11:14;67.00;;;10.53;;
11092;SDS011;5600;50.864;6.102;2023-04-06T02:14:23;68.87;;;10.13;;
11092;SDS011;5600;50.864;6.102;2023-04-06T02:17:27;62.67;;;10.07;;
11092;SDS011;5600;50.864;6.102;2023-04-06T02:20:28;92.57;;;12.03;;
11092;SDS011;5600;50.864;6.102;2023-04-06T02:23:29;81.07;;;10.83;;
11092;SDS011;5600;50.864;6.102;2023-04-06T02:26:31;63.47;;;10.60;;
11092;SDS011;5600;50.864;6.102;2023-04-06T02:29:32;54.63;;;10.07;;
11092;SDS011;5600;50.864;6.102;2023-04-06T02:32:33;75.40;;;11.27;;
11092;SDS011;5600;50.864;6.102;2023-04-06T02:35:35;65.63;;;10.40;;
11092;SDS011;5600;50.864;6.102;2023-04-06T02:38:36;79.17;;;11.40;;
11092;SDS011;5600;50.864;6.102;2023-04-06T02:41:37;60.47;;;10.50;;
11092;SDS011;5600;50.864;6.102;2023-04-06T02:44:39;60.53;;;9.90;;
11092;SDS011;5600;50.864;6.102;2023-04-06T02:47:42;56.37;;;10.00;;
11092;SDS011;5600;50.864;6.102;2023-04-06T02:50:44;83.93;;;11.67;;
11092;SDS011;5600;50.864;6.102;2023-04-06T02:53:45;54.27;;;10.20;;
11092;SDS011;5600;50.864;6.102;2023-04-06T02:56:54;79.80;;;11.83;;
11092;SDS011;5600;50.864;6.102;2023-04-06T02:59:57;64.77;;;10.60;;
11092;SDS011;5600;50.864;6.102;2023-04-06T03:03:06;77.00;;;11.60;;
11092;SDS011;5600;50.864;6.102;2023-04-06T03:06:07;67.03;;;10.83;;
11092;SDS011;5600;50.864;6.102;2023-04-06T03:09:09;80.63;;;11.33;;
11092;SDS011;5600;50.864;6.102;2023-04-06T03:12:11;96.20;;;11.93;;
11092;SDS011;5600;50.864;6.102;2023-04-06T03:15:44;84.37;;;11.27;;
11092;SDS011;5600;50.864;6.102;2023-04-06T03:18:49;57.47;;;10.50;;
11092;SDS011;5600;50.864;6.102;2023-04-06T03:21:50;76.37;;;11.53;;
11092;SDS011;5600;50.864;6.102;2023-04-06T03:24:53;71.83;;;11.33;;
11092;SDS011;5600;50.864;6.102;2023-04-06T03:27:54;61.73;;;10.07;;
11092;SDS011;5600;50.864;6.102;2023-04-06T03:30:55;93.47;;;11.53;;
11092;SDS011;5600;50.864;6.102;2023-04-06T03:34:16;60.70;;;10.47;;
11092;SDS011;5600;50.864;6.102;2023-04-06T03:37:17;67.10;;;10.40;;
11092;SDS011;5600;50.864;6.102;2023-04-06T03:40:24;66.07;;;10.50;;
11092;SDS011;5600;50.864;6.102;2023-04-06T03:43:25;87.27;;;11.67;;
11092;SDS011;5600;50.864;6.102;2023-04-06T03:46:26;58.33;;;9.80;;
11092;SDS011;5600;50.864;6.102;2023-04-06T03:49:30;96.53;;;12.00;;
11092;SDS011;5600;50.864;6.102;2023-04-06T03:52:32;63.97;;;10.40;;
11092;SDS011;5600;50.864;6.102;2023-04-06T03:55:33;63.03;;;10.43;;
11092;SDS011;5600;50.864;6.102;2023-04-06T03:58:34;61.00;;;10.40;;
11092;SDS011;5600;50.864;6.102;2023-04-06T04:01:35;65.33;;;10.13;;
11092;SDS011;5600;50.864;6.102;2023-04-06T04:04:36;63.00;;;10.70;;
11092;SDS011;5600;50.864;6.102;2023-04-06T04:07:37;66.73;;;10.70;;
11092;SDS011;5600;50.864;6.102;2023-04-06T04:10:39;79.10;;;10.90;;
11092;SDS011;5600;50.864;6.102;2023-04-06T04:13:40;74.23;;;11.20;;
11092;SDS011;5600;50.864;6.102;2023-04-06T04:16:43;77.57;;;10.93;;
11092;SDS011;5600;50.864;6.102;2023-04-06T04:19:43;65.03;;;10.80;;
11092;SDS011;5600;50.864;6.102;2023-04-06T04:22:45;57.00;;;10.33;;
11092;SDS011;5600;50.864;6.102;2023-04-06T04:25:46;63.00;;;10.63;;
11092;SDS011;5600;50.864;6.102;2023-04-06T04:28:46;60.87;;;10.07;;
11092;SDS011;5600;50.864;6.102;2023-04-06T04:31:49;65.43;;;10.53;;
11092;SDS011;5600;50.864;6.102;2023-04-06T04:34:51;57.10;;;10.23;;
11092;SDS011;5600;50.864;6.102;2023-04-06T04:38:05;94.20;;;11.43;;
11092;SDS011;5600;50.864;6.102;2023-04-06T04:41:08;87.10;;;11.67;;
11092;SDS011;5600;50.864;6.102;2023-04-06T04:44:11;74.47;;;10.83;;
11092;SDS011;5600;50.864;6.102;2023-04-06T04:47:12;96.47;;;12.50;;
11092;SDS011;5600;50.864;6.102;2023-04-06T04:50:18;74.00;;;10.40;;
11092;SDS011;5600;50.864;6.102;2023-04-06T04:53:21;69.83;;;10.83;;
11092;SDS011;5600;50.864;6.102;2023-04-06T04:56:23;62.80;;;10.23;;
11092;SDS011;5600;50.864;6.102;2023-04-06T04:59:31;72.50;;;11.13;;
11092;SDS011;5600;50.864;6.102;2023-04-06T05:02:39;78.37;;;10.57;;
11092;SDS011;5600;50.864;6.102;2023-04-06T05:05:50;56.53;;;9.70;;
11092;SDS011;5600;50.864;6.102;2023-04-06T05:08:51;64.80;;;10.07;;
11092;SDS011;5600;50.864;6.102;2023-04-06T05:11:53;67.43;;;10.60;;
11092;SDS011;5600;50.864;6.102;2023-04-06T05:14:55;73.50;;;10.67;;
11092;SDS011;5600;50.864;6.102;2023-04-06T05:17:57;67.77;;;10.67;;
11092;SDS011;5600;50.864;6.102;2023-04-06T05:21:05;124.40;;;13.77;;
11092;SDS011;5600;50.864;6.102;2023-04-06T05:24:14;79.10;;;11.13;;
11092;SDS011;5600;50.864;6.102;2023-04-06T05:27:17;63.30;;;10.17;;
11092;SDS011;5600;50.864;6.102;2023-04-06T05:30:18;60.30;;;9.93;;
11092;SDS011;5600;50.864;6.102;2023-04-06T05:33:22;71.20;;;11.03;;
11092;SDS011;5600;50.864;6.102;2023-04-06T05:36:34;72.67;;;10.33;;
11092;SDS011;5600;50.864;6.102;2023-04-06T05:39:41;56.03;;;9.63;;
11092;SDS011;5600;50.864;6.102;2023-04-06T05:42:43;61.27;;;9.90;;
11092;SDS011;5600;50.864;6.102;2023-04-06T05:45:45;64.60;;;10.57;;
11092;SDS011;5600;50.864;6.102;2023-04-06T05:48:46;89.23;;;11.87;;
11092;SDS011;5600;50.864;6.102;2023-04-06T05:51:48;66.37;;;10.30;;
11092;SDS011;5600;50.864;6.102;2023-04-06T05:54:49;92.67;;;11.20;;
11092;SDS011;5600;50.864;6.102;2023-04-06T05:57:50;69.40;;;11.10;;
11092;SDS011;5600;50.864;6.102;2023-04-06T06:00:57;84.73;;;11.30;;
11092;SDS011;5600;50.864;6.102;2023-04-06T06:04:09;69.13;;;11.03;;
11092;SDS011;5600;50.864;6.102;2023-04-06T06:07:13;76.73;;;11.20;;
11092;SDS011;5600;50.864;6.102;2023-04-06T06:10:19;69.07;;;10.53;;
11092;SDS011;5600;50.864;6.102;2023-04-06T06:13:20;89.67;;;11.90;;
11092;SDS011;5600;50.864;6.102;2023-04-06T06:16:22;57.60;;;10.00;;
11092;SDS011;5600;50.864;6.102;2023-04-06T06:19:23;79.07;;;11.17;;
11092;SDS011;5600;50.864;6.102;2023-04-06T06:22:28;63.50;;;10.63;;
11092;SDS011;5600;50.864;6.102;2023-04-06T06:25:28;73.87;;;11.20;;
11092;SDS011;5600;50.864;6.102;2023-04-06T06:28:31;73.90;;;10.90;;
11092;SDS011;5600;50.864;6.102;2023-04-06T06:31:32;123.47;;;13.57;;
11092;SDS011;5600;50.864;6.102;2023-04-06T06:34:33;87.63;;;11.83;;
11092;SDS011;5600;50.864;6.102;2023-04-06T06:37:37;71.47;;;11.97;;
11092;SDS011;5600;50.864;6.102;2023-04-06T06:40:40;42.73;;;9.83;;
11092;SDS011;5600;50.864;6.102;2023-04-06T06:43:41;76.07;;;11.30;;
11092;SDS011;5600;50.864;6.102;2023-04-06T06:46:44;64.60;;;11.43;;
11092;SDS011;5600;50.864;6.102;2023-04-06T06:49:44;90.03;;;12.73;;
11092;SDS011;5600;50.864;6.102;2023-04-06T06:52:45;103.60;;;12.93;;
11092;SDS011;5600;50.864;6.102;2023-04-06T06:55:46;67.87;;;12.20;;
11092;SDS011;5600;50.864;6.102;2023-04-06T06:58:48;70.90;;;12.07;;
11092;SDS011;5600;50.864;6.102;2023-04-06T07:01:49;61.90;;;10.63;;
11092;SDS011;5600;50.864;6.102;2023-04-06T07:04:50;79.73;;;12.30;;
11092;SDS011;5600;50.864;6.102;2023-04-06T07:07:51;94.83;;;13.33;;
11092;SDS011;5600;50.864;6.102;2023-04-06T07:10:53;105.13;;;13.40;;
11092;SDS011;5600;50.864;6.102;2023-04-06T07:13:55;119.73;;;14.30;;
11092;SDS011;5600;50.864;6.102;2023-04-06T07:16:56;115.47;;;14.23;;
11092;SDS011;5600;50.864;6.102;2023-04-06T07:19:57;57.07;;;11.70;;
11092;SDS011;5600;50.864;6.102;2023-04-06T07:22:57;69.13;;;12.20;;
11092;SDS011;5600;50.864;6.102;2023-04-06T07:25:58;41.77;;;9.67;;
11092;SDS011;5600;50.864;6.102;2023-04-06T07:28:59;69.27;;;11.60;;
11092;SDS011;5600;50.864;6.102;2023-04-06T07:32:00;72.57;;;11.43;;
11092;SDS011;5600;50.864;6.102;2023-04-06T07:35:02;63.13;;;11.03;;
11092;SDS011;5600;50.864;6.102;2023-04-06T07:38:03;60.63;;;11.63;;
11092;SDS011;5600;50.864;6.102;2023-04-06T07:41:05;57.07;;;9.83;;
11092;SDS011;5600;50.864;6.102;2023-04-06T07:44:06;60.17;;;11.00;;
11092;SDS011;5600;50.864;6.102;2023-04-06T07:47:07;76.77;;;11.50;;
11092;SDS011;5600;50.864;6.102;2023-04-06T07:50:08;64.27;;;10.80;;
11092;SDS011;5600;50.864;6.102;2023-04-06T07:53:10;50.57;;;9.57;;
11092;SDS011;5600;50.864;6.102;2023-04-06T07:56:13;50.27;;;9.37;;
11092;SDS011;5600;50.864;6.102;2023-04-06T07:59:15;73.63;;;10.83;;
11092;SDS011;5600;50.864;6.102;2023-04-06T08:02:16;55.33;;;9.27;;
11092;SDS011;5600;50.864;6.102;2023-04-06T08:05:16;77.80;;;10.37;;
11092;SDS011;5600;50.864;6.102;2023-04-06T08:08:18;82.20;;;9.80;;
11092;SDS011;5600;50.864;6.102;2023-04-06T08:11:19;78.50;;;10.00;;
11092;SDS011;5600;50.864;6.102;2023-04-06T08:14:20;96.60;;;10.50;;
11092;SDS011;5600;50.864;6.102;2023-04-06T08:17:21;100.40;;;10.90;;
11092;SDS011;5600;50.864;6.102;2023-04-06T08:20:22;77.13;;;10.37;;
11092;SDS011;5600;50.864;6.102;2023-04-06T08:23:22;69.83;;;10.10;;
11092;SDS011;5600;50.864;6.102;2023-04-06T08:26:23;79.47;;;10.07;;
11092;SDS011;5600;50.864;6.102;2023-04-06T08:29:24;102.33;;;11.60;;
11092;SDS011;5600;50.864;6.102;2023-04-06T08:32:24;74.57;;;9.73;;
11092;SDS011;5600;50.864;6.102;2023-04-06T08:35:25;70.33;;;9.70;;
11092;SDS011;5600;50.864;6.102;2023-04-06T08:38:26;76.50;;;10.43;;
11092;SDS011;5600;50.864;6.102;2023-04-06T08:41:27;64.03;;;9.77;;
11092;SDS011;5600;50.864;6.102;2023-04-06T08:44:28;67.20;;;10.03;;
11092;SDS011;5600;50.864;6.102;2023-04-06T08:47:30;51.37;;;9.33;;
11092;SDS011;5600;50.864;6.102;2023-04-06T08:50:31;56.37;;;9.10;;
11092;SDS011;5600;50.864;6.102;2023-04-06T08:53:33;59.57;;;9.77;;
11092;SDS011;5600;50.864;6.102;2023-04-06T08:56:36;62.67;;;9.47;;
11092;SDS011;5600;50.864;6.102;2023-04-06T08:59:38;72.47;;;10.50;;
11092;SDS011;5600;50.864;6.102;2023-04-06T09:02:41;64.03;;;9.50;;
11092;SDS011;5600;50.864;6.102;2023-04-06T09:05:43;83.47;;;10.70;;
11092;SDS011;5600;50.864;6.102;2023-04-06T09:08:49;56.83;;;9.07;;
11092;SDS011;5600;50.864;6.102;2023-04-06T09:11:50;126.40;;;13.57;;
11092;SDS011;5600;50.864;6.102;2023-04-06T09:14:52;74.17;;;10.10;;
11092;SDS011;5600;50.864;6.102;2023-04-06T09:17:53;67.87;;;10.20;;
11092;SDS011;5600;50.864;6.102;2023-04-06T09:21:01;100.70;;;11.43;;
11092;SDS011;5600;50.864;6.102;2023-04-06T09:24:03;185.30;;;16.23;;
11092;SDS011;5600;50.864;6.102;2023-04-06T09:27:04;100.37;;;11.90;;
11092;SDS011;5600;50.864;6.102;2023-04-06T09:30:06;150.83;;;13.40;;
11092;SDS011;5600;50.864;6.102;2023-04-06T09:33:22;137.83;;;13.03;;
11092;SDS011;5600;50.864;6.102;2023-04-06T09:36:33;157.77;;;14.17;;
11092;SDS011;5600;50.864;6.102;2023-04-06T09:39:38;85.60;;;10.97;;
11092;SDS011;5600;50.864;6.102;2023-04-06T09:42:41;120.03;;;12.70;;
11092;SDS011;5600;50.864;6.102;2023-04-06T09:45:42;100.03;;;12.13;;
11092;SDS011;5600;50.864;6.102;2023-04-06T09:48:44;98.73;;;11.90;;
11092;SDS011;5600;50.864;6.102;2023-04-06T09:51:46;128.37;;;14.17;;
11092;SDS011;5600;50.864;6.102;2023-04-06T09:54:49;115.80;;;13.53;;
11092;SDS011;5600;50.864;6.102;2023-04-06T09:58:25;102.37;;;13.17;;
11092;SDS011;5600;50.864;6.102;2023-04-06T10:01:20;157.27;;;15.40;;
11092;SDS011;5600;50.864;6.102;2023-04-06T10:07:36;133.40;;;14.10;;
11092;SDS011;5600;50.864;6.102;2023-04-06T10:10:39;123.50;;;12.97;;
11092;SDS011;5600;50.864;6.102;2023-04-06T10:13:40;83.50;;;11.13;;
11092;SDS011;5600;50.864;6.102;2023-04-06T10:16:42;76.00;;;10.37;;
11092;SDS011;5600;50.864;6.102;2023-04-06T10:19:53;112.80;;;12.10;;
11092;SDS011;5600;50.864;6.102;2023-04-06T10:22:59;145.23;;;13.73;;
11092;SDS011;5600;50.864;6.102;2023-04-06T10:26:05;123.10;;;12.87;;
11092;SDS011;5600;50.864;6.102;2023-04-06T10:29:12;119.10;;;11.80;;
11092;SDS011;5600;50.864;6.102;2023-04-06T10:32:13;74.50;;;10.20;;
11092;SDS011;5600;50.864;6.102;2023-04-06T10:35:13;86.53;;;10.40;;
11092;SDS011;5600;50.864;6.102;2023-04-06T10:38:16;121.83;;;12.10;;
11092;SDS011;5600;50.864;6.102;2023-04-06T10:41:21;118.90;;;11.27;;
11092;SDS011;5600;50.864;6.102;2023-04-06T10:44:25;99.47;;;10.60;;
11092;SDS011;5600;50.864;6.102;2023-04-06T10:47:26;69.90;;;8.63;;
11092;SDS011;5600;50.864;6.102;2023-04-06T10:50:27;121.60;;;11.20;;
11092;SDS011;5600;50.864;6.102;2023-04-06T10:53:29;119.87;;;10.60;;
11092;SDS011;5600;50.864;6.102;2023-04-06T10:56:35;87.53;;;9.30;;
11092;SDS011;5600;50.864;6.102;2023-04-06T10:59:41;81.20;;;9.20;;
11092;SDS011;5600;50.864;6.102;2023-04-06T11:02:42;109.97;;;11.23;;
11092;SDS011;5600;50.864;6.102;2023-04-06T11:05:43;139.67;;;12.60;;
11092;SDS011;5600;50.864;6.102;2023-04-06T11:08:45;99.80;;;10.43;;
11092;SDS011;5600;50.864;6.102;2023-04-06T11:11:46;81.43;;;9.83;;
11092;SDS011;5600;50.864;6.102;2023-04-06T11:15:20;131.93;;;11.70;;
11092;SDS011;5600;50.864;6.102;2023-04-06T11:18:16;52.40;;;7.87;;
11092;SDS011;5600;50.864;6.102;2023-04-06T11:21:17;113.27;;;10.80;;
11092;SDS011;5600;50.864;6.102;2023-04-06T11:24:20;134.77;;;12.07;;
11092;SDS011;5600;50.864;6.102;2023-04-06T11:27:22;109.50;;;10.40;;
11092;SDS011;5600;50.864;6.102;2023-04-06T11:30:22;84.93;;;9.43;;
11092;SDS011;5600;50.864;6.102;2023-04-06T11:33:23;100.93;;;9.83;;
11092;SDS011;5600;50.864;6.102;2023-04-06T11:36:27;125.90;;;11.23;;
11092;SDS011;5600;50.864;6.102;2023-04-06T11:39:29;141.90;;;12.37;;
11092;SDS011;5600;50.864;6.102;2023-04-06T11:42:30;143.77;;;13.00;;
11092;SDS011;5600;50.864;6.102;2023-04-06T11:45:39;143.97;;;13.20;;
11092;SDS011;5600;50.864;6.102;2023-04-06T11:48:45;148.73;;;13.37;;
11092;SDS011;5600;50.864;6.102;2023-04-06T11:51:46;139.60;;;12.73;;
11092;SDS011;5600;50.864;6.102;2023-04-06T11:54:47;107.80;;;11.23;;
11092;SDS011;5600;50.864;6.102;2023-04-06T11:57:49;90.97;;;10.73;;
11092;SDS011;5600;50.864;6.102;2023-04-06T12:00:51;153.80;;;13.53;;
11092;SDS011;5600;50.864;6.102;2023-04-06T12:03:52;118.27;;;12.63;;
11092;SDS011;5600;50.864;6.102;2023-04-06T12:06:53;88.57;;;10.37;;
11092;SDS011;5600;50.864;6.102;2023-04-06T12:09:55;112.10;;;11.90;;
11092;SDS011;5600;50.864;6.102;2023-04-06T12:12:55;80.20;;;10.73;;
11092;SDS011;5600;50.864;6.102;2023-04-06T12:15:56;97.43;;;11.10;;
11092;SDS011;5600;50.864;6.102;2023-04-06T12:18:57;97.40;;;11.73;;
11092;SDS011;5600;50.864;6.102;2023-04-06T12:21:57;66.27;;;9.80;;
11092;SDS011;5600;50.864;6.102;2023-04-06T12:24:58;81.50;;;10.83;;
11092;SDS011;5600;50.864;6.102;2023-04-06T12:27:59;84.27;;;11.20;;
11092;SDS011;5600;50.864;6.102;2023-04-06T12:31:00;85.43;;;11.67;;
11092;SDS011;5600;50.864;6.102;2023-04-06T12:34:01;69.80;;;10.73;;
11092;SDS011;5600;50.864;6.102;2023-04-06T12:37:03;110.13;;;12.70;;
11092;SDS011;5600;50.864;6.102;2023-04-06T12:40:04;74.20;;;10.80;;
11092;SDS011;5600;50.864;6.102;2023-04-06T12:43:05;95.87;;;11.20;;
11092;SDS011;5600;50.864;6.102;2023-04-06T12:46:06;130.17;;;12.73;;
11092;SDS011;5600;50.864;6.102;2023-04-06T12:49:07;120.97;;;12.43;;
11092;SDS011;5600;50.864;6.102;2023-04-06T12:52:07;154.33;;;13.63;;
11092;SDS011;5600;50.864;6.102;2023-04-06T12:55:08;115.53;;;11.93;;
11092;SDS011;5600;50.864;6.102;2023-04-06T12:58:09;90.30;;;10.93;;
11092;SDS011;5600;50.864;6.102;2023-04-06T13:01:10;139.90;;;13.23;;
11092;SDS011;5600;50.864;6.102;2023-04-06T13:04:14;133.07;;;12.67;;
11092;SDS011;5600;50.864;6.102;2023-04-06T13:07:15;107.30;;;11.07;;
11092;SDS011;5600;50.864;6.102;2023-04-06T13:10:16;71.80;;;8.60;;
11092;SDS011;5600;50.864;6.102;2023-04-06T13:13:17;107.97;;;11.27;;
11092;SDS011;5600;50.864;6.102;2023-04-06T13:16:18;121.70;;;11.50;;
11092;SDS011;5600;50.864;6.102;2023-04-06T13:19:19;81.03;;;9.27;;
11092;SDS011;5600;50.864;6.102;2023-04-06T13:22:20;111.77;;;10.60;;
11092;SDS011;5600;50.864;6.102;2023-04-06T13:25:21;127.17;;;11.23;;
11092;SDS011;5600;50.864;6.102;2023-04-06T13:28:21;78.60;;;8.57;;
11092;SDS011;5600;50.864;6.102;2023-04-06T13:31:22;92.03;;;9.23;;
11092;SDS011;5600;50.864;6.102;2023-04-06T13:34:23;124.47;;;10.53;;
11092;SDS011;5600;50.864;6.102;2023-04-06T13:37:23;84.17;;;8.73;;
11092;SDS011;5600;50.864;6.102;2023-04-06T13:40:24;74.67;;;8.30;;
11092;SDS011;5600;50.864;6.102;2023-04-06T13:43:25;131.33;;;11.13;;
11092;SDS011;5600;50.864;6.102;2023-04-06T13:46:27;117.40;;;10.07;;
11092;SDS011;5600;50.864;6.102;2023-04-06T13:49:27;76.40;;;9.07;;
11092;SDS011;5600;50.864;6.102;2023-04-06T13:52:31;123.10;;;10.60;;
11092;SDS011;5600;50.864;6.102;2023-04-06T13:55:36;195.10;;;13.60;;
11092;SDS011;5600;50.864;6.102;2023-04-06T13:58:37;110.83;;;10.10;;
11092;SDS011;5600;50.864;6.102;2023-04-06T14:01:37;105.40;;;9.90;;
11092;SDS011;5600;50.864;6.102;2023-04-06T14:04:38;97.33;;;9.37;;
11092;SDS011;5600;50.864;6.102;2023-04-06T14:07:38;116.00;;;10.03;;
11092;SDS011;5600;50.864;6.102;2023-04-06T14:10:40;89.40;;;8.20;;
11092;SDS011;5600;50.864;6.102;2023-04-06T14:13:42;148.60;;;11.73;;
11092;SDS011;5600;50.864;6.102;2023-04-06T14:16:42;160.70;;;11.67;;
11092;SDS011;5600;50.864;6.102;2023-04-06T14:19:47;73.63;;;8.00;;
11092;SDS011;5600;50.864;6.102;2023-04-06T14:22:48;57.30;;;7.20;;
11092;SDS011;5600;50.864;6.102;2023-04-06T14:25:51;114.93;;;9.63;;
11092;SDS011;5600;50.864;6.102;2023-04-06T14:29:02;134.73;;;11.00;;
11092;SDS011;5600;50.864;6.102;2023-04-06T14:32:04;110.20;;;9.47;;
11092;SDS011;5600;50.864;6.102;2023-04-06T14:35:04;70.37;;;7.97;;
11092;SDS011;5600;50.864;6.102;2023-04-06T14:38:09;98.10;;;9.33;;
11092;SDS011;5600;50.864;6.102;2023-04-06T14:41:16;126.57;;;10.27;;
11092;SDS011;5600;50.864;6.102;2023-04-06T14:51:17;99.67;;;8.70;;
11092;SDS011;5600;50.864;6.102;2023-04-06T14:54:18;128.20;;;9.73;;
11092;SDS011;5600;50.864;6.102;2023-04-06T14:57:19;107.13;;;9.10;;
11092;SDS011;5600;50.864;6.102;2023-04-06T15:05:00;134.70;;;9.93;;
11092;SDS011;5600;50.864;6.102;2023-04-06T15:08:01;127.40;;;9.33;;
11092;SDS011;5600;50.864;6.102;2023-04-06T15:11:02;82.50;;;7.03;;
11092;SDS011;5600;50.864;6.102;2023-04-06T15:14:02;130.80;;;9.23;;
11092;SDS011;5600;50.864;6.102;2023-04-06T15:17:29;99.80;;;7.40;;
11092;SDS011;5600;50.864;6.102;2023-04-06T15:20:29;74.77;;;6.03;;
11092;SDS011;5600;50.864;6.102;2023-04-06T15:23:30;116.80;;;8.23;;
11092;SDS011;5600;50.864;6.102;2023-04-06T15:26:32;140.83;;;9.23;;
11092;SDS011;5600;50.864;6.102;2023-04-06T15:29:33;110.57;;;7.90;;
11092;SDS011;5600;50.864;6.102;2023-04-06T15:32:34;105.63;;;7.23;;
11092;SDS011;5600;50.864;6.102;2023-04-06T15:40:44;94.43;;;6.80;;
11092;SDS011;5600;50.864;6.102;2023-04-06T15:48:28;89.73;;;6.80;;
11092;SDS011;5600;50.864;6.102;2023-04-06T15:51:31;109.40;;;7.43;;
11092;SDS011;5600;50.864;6.102;2023-04-06T15:54:32;98.77;;;7.27;;
11092;SDS011;5600;50.864;6.102;2023-04-06T15:57:33;78.30;;;6.27;;
11092;SDS011;5600;50.864;6.102;2023-04-06T16:00:34;53.87;;;4.80;;
11092;SDS011;5600;50.864;6.102;2023-04-06T16:03:35;79.87;;;5.93;;
11092;SDS011;5600;50.864;6.102;2023-04-06T16:20:42;75.23;;;5.97;;
11092;SDS011;5600;50.864;6.102;2023-04-06T16:23:45;68.53;;;5.50;;
11092;SDS011;5600;50.864;6.102;2023-04-06T16:36:08;52.83;;;4.80;;
11092;SDS011;5600;50.864;6.102;2023-04-06T16:39:09;51.90;;;4.90;;
11092;SDS011;5600;50.864;6.102;2023-04-06T16:42:10;82.57;;;6.33;;
11092;SDS011;5600;50.864;6.102;2023-04-06T16:45:11;97.90;;;7.27;;
11092;SDS011;5600;50.864;6.102;2023-04-06T16:49:27;46.47;;;4.57;;
11092;SDS011;5600;50.864;6.102;2023-04-06T16:52:54;61.80;;;5.53;;
11092;SDS011;5600;50.864;6.102;2023-04-06T16:57:11;80.93;;;6.27;;
11092;SDS011;5600;50.864;6.102;2023-04-06T17:09:12;68.73;;;5.80;;
11092;SDS011;5600;50.864;6.102;2023-04-06T17:12:13;63.10;;;5.70;;
11092;SDS011;5600;50.864;6.102;2023-04-06T17:18:43;78.87;;;6.20;;
11092;SDS011;5600;50.864;6.102;2023-04-06T17:21:43;62.13;;;5.23;;
11092;SDS011;5600;50.864;6.102;2023-04-06T17:24:44;70.03;;;5.53;;
11092;SDS011;5600;50.864;6.102;2023-04-06T17:27:46;72.53;;;5.83;;
11092;SDS011;5600;50.864;6.102;2023-04-06T17:30:47;95.07;;;6.60;;
11092;SDS011;5600;50.864;6.102;2023-04-06T17:33:47;48.33;;;4.47;;
11092;SDS011;5600;50.864;6.102;2023-04-06T17:41:32;66.03;;;5.63;;
11092;SDS011;5600;50.864;6.102;2023-04-06T17:45:00;98.43;;;7.20;;
11092;SDS011;5600;50.864;6.102;2023-04-06T17:49:16;47.03;;;4.60;;
11092;SDS011;5600;50.864;6.102;2023-04-06T17:52:18;46.40;;;4.60;;
11092;SDS011;5600;50.864;6.102;2023-04-06T17:55:18;65.13;;;5.23;;
11092;SDS011;5600;50.864;6.102;2023-04-06T17:58:22;50.27;;;4.77;;
11092;SDS011;5600;50.864;6.102;2023-04-06T18:01:23;50.83;;;4.67;;
11092;SDS011;5600;50.864;6.102;2023-04-06T18:04:23;54.00;;;4.87;;
11092;SDS011;5600;50.864;6.102;2023-04-06T18:07:24;52.87;;;5.20;;
11092;SDS011;5600;50.864;6.102;2023-04-06T18:10:25;100.00;;;7.57;;
11092;SDS011;5600;50.864;6.102;2023-04-06T18:13:26;43.20;;;4.93;;
11092;SDS011;5600;50.864;6.102;2023-04-06T18:16:27;71.40;;;6.07;;
11092;SDS011;5600;50.864;6.102;2023-04-06T18:19:29;39.33;;;4.47;;
11092;SDS011;5600;50.864;6.102;2023-04-06T18:22:34;53.77;;;4.83;;
11092;SDS011;5600;50.864;6.102;2023-04-06T18:25:38;81.67;;;6.10;;
11092;SDS011;5600;50.864;6.102;2023-04-06T18:28:40;50.27;;;4.50;;
11092;SDS011;5600;50.864;6.102;2023-04-06T18:31:40;48.47;;;4.40;;
11092;SDS011;5600;50.864;6.102;2023-04-06T18:34:42;56.90;;;5.07;;
11092;SDS011;5600;50.864;6.102;2023-04-06T18:37:44;54.17;;;5.17;;
11092;SDS011;5600;50.864;6.102;2023-04-06T18:40:45;77.90;;;6.70;;
11092;SDS011;5600;50.864;6.102;2023-04-06T18:43:46;60.33;;;5.63;;
11092;SDS011;5600;50.864;6.102;2023-04-06T18:46:47;59.67;;;5.23;;
11092;SDS011;5600;50.864;6.102;2023-04-06T18:49:48;57.67;;;5.37;;
11092;SDS011;5600;50.864;6.102;2023-04-06T18:52:50;59.37;;;5.80;;
11092;SDS011;5600;50.864;6.102;2023-04-06T18:55:51;55.47;;;5.33;;
11092;SDS011;5600;50.864;6.102;2023-04-06T18:58:52;70.00;;;5.93;;
11092;SDS011;5600;50.864;6.102;2023-04-06T19:01:52;69.73;;;5.87;;
11092;SDS011;5600;50.864;6.102;2023-04-06T19:04:53;54.00;;;5.50;;
11092;SDS011;5600;50.864;6.102;2023-04-06T19:07:54;65.10;;;6.20;;
11092;SDS011;5600;50.864;6.102;2023-04-06T19:10:54;90.17;;;7.37;;
11092;SDS011;5600;50.864;6.102;2023-04-06T19:13:55;46.80;;;5.27;;
11092;SDS011;5600;50.864;6.102;2023-04-06T19:16:56;55.33;;;5.93;;